Elba, Alabama
Current Conditions -  °F | °C
As of 7:55 PM on Sunday 21 Dec 2014 (Local Time) from KEDN Reporting Station
Haze Haze  
Wind Chill: 52°   Ceiling: 400
Heat Index: 52°   Visibility: 5mi
Dew Point: 52°   Wind: 7mph
Humidity: 100%   Direction: 110°ESE
Pressure: 30.04"   Gusts: NA
Location:  31.41°N, 86.07°W
Report Text: KEDN 220155Z AUTO 11006KT 5SM BR OVC004 11/11 A3004 RMK AO2
Loading
Personal Weather Stations






























Interactive Weather Map New forecast layout! Learn more

10-Day Weather Forecast

Advertisements
Track Severe Weather on mobile